Time;durP1;ratioP1;P1;durP2;ratioP2;P2;SDS_P1;SDS_P2;PMS_P1;PMS_P2;Temp;Humidity;BMP_temperature;BMP_pressure;BME280_temperature;BME280_humidity;BME280_pressure;Samples;Min_cycle;Max_cycle;Signal;HPM_P1;HPM_P2
2022/07/15 00:00:50;;;;;;;1.08;0.47;;;;;;;19.20;58.19;100669.77;465416;114;922814;-75
2022/07/15 00:01:53;;;;;;;0.42;0.37;;;;;;;19.17;58.16;100667.56;465430;114;922811;-76
2022/07/15 00:02:56;;;;;;;0.28;0.28;;;;;;;19.13;58.19;100674.73;465403;113;922579;-75
2022/07/15 00:03:59;;;;;;;0.36;0.34;;;;;;;19.11;58.23;100672.23;465409;114;922562;-76
2022/07/15 00:05:03;;;;;;;0.37;0.37;;;;;;;19.10;58.28;100669.73;465431;114;922530;-76
2022/07/15 00:06:07;;;;;;;0.79;0.24;;;;;;;19.10;58.38;100669.73;465270;114;922535;-75
2022/07/15 00:07:10;;;;;;;0.34;0.34;;;;;;;19.09;58.43;100670.83;465408;114;922922;-75
2022/07/15 00:08:12;;;;;;;0.54;0.40;;;;;;;19.09;58.42;100668.89;465412;114;922967;-75
2022/07/15 00:09:15;;;;;;;0.30;0.30;;;;;;;19.09;58.45;100673.59;465451;114;922487;-75
2022/07/15 00:10:23;;;;;;;0.68;0.40;;;;;;;19.09;58.50;100670.83;465244;114;923003;-75
2022/07/15 00:11:25;;;;;;;0.70;0.40;;;;;;;19.11;58.62;100665.88;465272;114;922578;-75
2022/07/15 00:12:28;;;;;;;0.31;0.31;;;;;;;19.13;58.72;100669.21;465406;114;923053;-75
2022/07/15 00:13:31;;;;;;;0.65;0.35;;;;;;;19.13;58.59;100672.77;465454;114;922977;-75
2022/07/15 00:14:35;;;;;;;0.57;0.42;;;;;;;19.15;58.58;100672.52;462926;114;922656;-75
2022/07/15 00:15:38;;;;;;;0.44;0.29;;;;;;;19.16;58.59;100674.19;456872;116;922489;-76
2022/07/15 00:16:41;;;;;;;0.54;0.31;;;;;;;19.15;58.60;100673.35;456825;116;923015;-75
2022/07/15 00:17:44;;;;;;;0.95;0.43;;;;;;;19.18;58.59;100672.00;456844;116;922578;-75
2022/07/15 00:18:47;;;;;;;0.50;0.40;;;;;;;19.18;58.53;100672.00;456909;116;923076;-75
2022/07/15 00:19:51;;;;;;;0.94;0.46;;;;;;;19.17;58.40;100673.09;456985;116;922611;-75
2022/07/15 00:20:54;;;;;;;0.86;0.44;;;;;;;19.16;58.40;100674.19;456915;116;922844;-75
2022/07/15 00:21:57;;;;;;;1.24;0.28;;;;;;;19.14;58.43;100670.84;456972;116;922607;-75
2022/07/15 00:23:05;;;;;;;0.71;0.30;;;;;;;19.13;58.41;100677.50;456910;116;922676;-76
2022/07/15 00:24:08;;;;;;;0.38;0.36;;;;;;;19.12;58.36;100675.83;456784;116;922503;-75
2022/07/15 00:25:12;;;;;;;0.78;0.40;;;;;;;19.09;58.39;100674.42;457026;116;923013;-75
2022/07/15 00:26:15;;;;;;;0.40;0.33;;;;;;;19.07;58.41;100670.28;456791;116;922544;-75
2022/07/15 00:27:19;;;;;;;1.52;0.54;;;;;;;19.06;58.46;100674.14;457015;116;922920;-76
2022/07/15 00:28:24;;;;;;;0.41;0.31;;;;;;;19.03;58.43;100675.49;456872;116;922619;-75
2022/07/15 00:29:27;;;;;;;1.07;0.46;;;;;;;19.00;58.40;100677.97;456873;116;922954;-75
2022/07/15 00:30:33;;;;;;;2.07;0.34;;;;;;;18.96;58.45;100679.62;462677;114;922653;-75
2022/07/15 00:31:37;;;;;;;1.96;0.42;;;;;;;18.93;58.48;100677.37;465030;114;922955;-75
2022/07/15 00:32:40;;;;;;;1.19;0.47;;;;;;;18.89;58.52;100684.54;465264;113;922785;-75
2022/07/15 00:33:43;;;;;;;0.33;0.33;;;;;;;18.85;58.61;100678.73;465317;114;930218;-75
2022/07/15 00:34:46;;;;;;;1.36;0.40;;;;;;;18.83;58.73;100677.31;466857;113;922748;-75
2022/07/15 00:35:49;;;;;;;0.41;0.40;;;;;;;18.80;58.78;100669.58;467058;113;922525;-75
2022/07/15 00:36:52;;;;;;;1.27;0.41;;;;;;;18.77;58.85;100675.62;467038;113;922570;-76
2022/07/15 00:37:55;;;;;;;3.79;0.86;;;;;;;18.73;58.96;100676.16;466986;113;922608;-75
2022/07/15 00:38:58;;;;;;;0.94;0.34;;;;;;;18.71;59.06;100681.11;466976;113;922804;-75
2022/07/15 00:40:01;;;;;;;0.88;0.41;;;;;;;18.71;59.18;100677.52;467029;113;922528;-75
2022/07/15 00:41:04;;;;;;;0.61;0.40;;;;;;;18.70;59.31;100682.20;467020;113;922951;-75
2022/07/15 00:42:07;;;;;;;26.05;2.42;;;;;;;18.70;59.36;100687.73;467013;113;922496;-75
2022/07/15 00:43:11;;;;;;;1.21;0.50;;;;;;;18.71;59.38;100685.80;467043;113;923164;-75
2022/07/15 00:44:14;;;;;;;1.38;0.52;;;;;;;18.72;59.61;100680.02;471619;112;922584;-75
2022/07/15 00:45:19;;;;;;;0.61;0.30;;;;;;;18.73;59.57;100676.16;472111;112;923029;-75
2022/07/15 00:46:23;;;;;;;1.08;0.44;;;;;;;18.75;59.64;100684.16;471860;112;922593;-75
2022/07/15 00:47:26;;;;;;;1.44;0.49;;;;;;;18.76;59.62;100677.55;472086;112;922635;-75
2022/07/15 00:48:30;;;;;;;0.44;0.38;;;;;;;18.79;59.59;100676.20;471961;112;922874;-75
2022/07/15 00:49:33;;;;;;;0.62;0.51;;;;;;;18.80;59.53;100681.43;472077;112;922635;-75
2022/07/15 00:50:37;;;;;;;0.74;0.36;;;;;;;18.77;59.51;100684.74;471975;112;922569;-75
2022/07/15 00:51:43;;;;;;;0.40;0.40;;;;;;;18.77;59.51;100684.74;471831;112;930192;-75
2022/07/15 00:52:49;;;;;;;0.57;0.40;;;;;;;18.77;59.40;100690.27;471654;112;930180;-75
2022/07/15 00:53:54;;;;;;;0.77;0.48;;;;;;;18.77;59.48;100692.19;471791;112;922565;-75
2022/07/15 00:55:01;;;;;;;1.89;0.52;;;;;;;18.79;59.40;100682.55;471863;112;922585;-75
2022/07/15 00:56:06;;;;;;;0.43;0.43;;;;;;;18.79;59.40;100682.55;471833;112;922450;-75
2022/07/15 00:57:10;;;;;;;0.48;0.39;;;;;;;18.80;59.53;100684.19;471788;112;922998;-75
2022/07/15 00:58:16;;;;;;;0.44;0.41;;;;;;;18.80;59.40;100678.66;471894;112;922573;-75
2022/07/15 00:59:25;;;;;;;1.59;0.41;;;;;;;18.80;59.40;100689.72;471686;112;922984;-75
2022/07/15 01:00:29;;;;;;;0.39;0.39;;;;;;;18.79;59.39;100685.31;471830;112;922535;-75
2022/07/15 01:01:35;;;;;;;0.80;0.49;;;;;;;18.79;59.39;100684.48;471981;112;922678;-76
2022/07/15 01:02:39;;;;;;;7.77;0.90;;;;;;;18.79;59.39;100688.08;471773;112;923033;-75
2022/07/15 01:03:43;;;;;;;0.21;0.21;;;;;;;18.80;59.31;100697.20;471835;112;922891;-75
2022/07/15 01:04:48;;;;;;;0.63;0.33;;;;;;;18.79;59.47;100684.48;471823;112;930156;-75
2022/07/15 01:05:51;;;;;;;0.60;0.36;;;;;;;18.79;59.37;100696.37;471769;112;930198;-75
2022/07/15 01:06:54;;;;;;;0.53;0.28;;;;;;;18.79;59.35;100688.08;467600;112;930373;-76
2022/07/15 01:07:57;;;;;;;0.34;0.34;;;;;;;18.79;59.30;100688.08;462737;114;922462;-75
2022/07/15 01:09:00;;;;;;;0.38;0.37;;;;;;;18.79;59.23;100696.37;462674;114;922478;-75
2022/07/15 01:10:06;;;;;;;0.54;0.53;;;;;;;18.77;59.28;100698.55;462582;114;922569;-75
2022/07/15 01:11:09;;;;;;;0.38;0.38;;;;;;;18.78;59.35;100691.94;462498;114;930169;-75
2022/07/15 01:12:13;;;;;;;0.61;0.40;;;;;;;18.78;59.30;100696.62;462623;114;923074;-75
2022/07/15 01:13:18;;;;;;;1.29;0.34;;;;;;;18.77;59.24;100692.19;462660;114;922580;-75
2022/07/15 01:14:21;;;;;;;1.22;0.46;;;;;;;18.76;59.28;100696.88;462849;113;922633;-75
2022/07/15 01:15:25;;;;;;;0.41;0.40;;;;;;;18.75;59.26;100696.05;458161;115;923190;-75
2022/07/15 01:16:30;;;;;;;0.51;0.34;;;;;;;18.75;59.31;100692.45;458669;113;923078;-75
2022/07/15 01:17:33;;;;;;;0.29;0.28;;;;;;;18.75;59.36;100700.73;458094;116;922602;-76
2022/07/15 01:18:38;;;;;;;0.65;0.30;;;;;;;18.74;59.38;100699.90;457920;115;922557;-75
2022/07/15 01:19:42;;;;;;;0.70;0.58;;;;;;;18.75;59.40;100695.21;458033;115;922645;-75
2022/07/15 01:20:47;;;;;;;0.62;0.44;;;;;;;18.75;59.45;100700.73;458093;115;922501;-77
2022/07/15 01:21:52;;;;;;;0.32;0.32;;;;;;;18.75;59.50;100696.05;449468;118;922538;-75
2022/07/15 01:22:55;;;;;;;1.64;0.56;;;;;;;18.78;59.47;100688.34;449931;115;922640;-76
2022/07/15 01:24:00;;;;;;;0.42;0.41;;;;;;;18.79;59.42;100695.53;457815;115;922544;-75
2022/07/15 01:25:10;;;;;;;;;;;;;;;18.77;59.42;100694.95;461592;115;923076;-75
2022/07/15 01:26:14;;;;;;;3.43;0.48;;;;;;;18.75;59.45;100696.05;458189;115;922756;-75
2022/07/15 01:27:19;;;;;;;2.95;0.40;;;;;;;18.73;59.52;100695.50;458022;115;923098;-75
2022/07/15 01:28:23;;;;;;;0.30;0.30;;;;;;;18.71;59.58;100689.40;458019;115;930264;-75
2022/07/15 01:29:28;;;;;;;0.87;0.59;;;;;;;18.70;59.69;100693.25;456868;115;922667;-75
2022/07/15 01:30:32;;;;;;;0.41;0.41;;;;;;;18.71;59.76;100688.56;452598;116;922767;-75
2022/07/15 01:31:35;;;;;;;0.37;0.35;;;;;;;18.71;59.75;100688.56;447455;118;922580;-75
2022/07/15 01:32:39;;;;;;;0.41;0.41;;;;;;;18.71;59.69;100694.09;447808;116;923197;-75
2022/07/15 01:33:42;;;;;;;1.59;0.44;;;;;;;18.70;59.69;100692.42;455451;116;922710;-76
2022/07/15 01:34:48;;;;;;;0.46;0.46;;;;;;;18.70;59.63;100696.02;455108;116;922558;-75
2022/07/15 01:35:50;;;;;;;1.12;0.51;;;;;;;18.68;59.67;100695.47;454601;116;922523;-75
2022/07/15 01:36:54;;;;;;;1.13;0.48;;;;;;;18.67;59.72;100688.27;455198;116;922919;-75
2022/07/15 01:37:57;;;;;;;0.76;0.61;;;;;;;18.67;59.70;100695.72;455190;116;923266;-76
2022/07/15 01:39:00;;;;;;;0.78;0.49;;;;;;;18.65;59.70;100693.22;445922;119;923175;-75
2022/07/15 01:40:07;;;;;;;0.57;0.57;;;;;;;18.66;59.72;100703.17;451344;113;922739;-75
2022/07/15 01:41:10;;;;;;;1.16;0.48;;;;;;;18.65;59.71;100693.22;469824;113;922456;-75
2022/07/15 01:42:13;;;;;;;0.47;0.43;;;;;;;18.64;59.73;100694.31;469829;113;923619;-75
2022/07/15 01:43:17;;;;;;;1.93;0.59;;;;;;;18.66;59.95;100696.81;469876;113;930195;-75
2022/07/15 01:44:20;;;;;;;2.09;0.41;;;;;;;18.66;59.95;100696.81;469860;113;922456;-75
2022/07/15 01:45:23;;;;;;;1.69;0.41;;;;;;;18.64;59.72;100699.84;469944;113;922518;-75
2022/07/15 01:46:27;;;;;;;0.63;0.40;;;;;;;18.64;59.61;100697.08;469898;112;922974;-75
2022/07/15 01:47:32;;;;;;;0.42;0.40;;;;;;;18.61;59.60;100694.86;469895;113;922471;-76
2022/07/15 01:50:15;;;;;;;1.84;0.71;;;;;;;18.58;59.67;100694.56;441737;119;923013;-75
2022/07/15 01:51:32;;;;;;;0.59;0.42;;;;;;;18.54;59.75;100697.00;441703;120;922955;-75
2022/07/15 01:52:35;;;;;;;0.59;0.59;;;;;;;18.52;59.89;100698.34;444339;113;923178;-76
2022/07/15 01:53:38;;;;;;;0.51;0.51;;;;;;;18.51;60.06;100696.68;469955;113;923642;-75
2022/07/15 01:54:43;;;;;;;0.94;0.43;;;;;;;18.50;60.02;100698.60;469730;113;923034;-75
2022/07/15 01:55:46;;;;;;;0.63;0.57;;;;;;;18.50;60.03;100698.60;469936;113;923108;-75
2022/07/15 01:56:51;;;;;;;0.49;0.41;;;;;;;18.50;60.04;100704.13;460486;114;922533;-75
2022/07/15 01:57:54;;;;;;;0.74;0.64;;;;;;;18.51;60.11;100702.20;461010;113;923010;-75
2022/07/15 01:58:58;;;;;;;0.47;0.47;;;;;;;18.51;60.11;100697.52;469960;113;923011;-75
2022/07/15 02:00:01;;;;;;;3.25;0.86;;;;;;;18.52;60.06;100701.11;469767;113;922560;-75
2022/07/15 02:01:19;;;;;;;0.85;0.55;;;;;;;18.51;60.06;100705.80;469741;113;922709;-75
2022/07/15 02:02:23;;;;;;;1.28;0.47;;;;;;;18.51;60.17;100697.52;469891;112;923327;-75
2022/07/15 02:03:26;;;;;;;1.39;0.62;;;;;;;18.51;60.17;100707.72;469755;113;930067;-76
2022/07/15 02:04:30;;;;;;;0.51;0.51;;;;;;;18.50;60.19;100698.60;469908;112;922857;-75
2022/07/15 02:05:33;;;;;;;0.99;0.60;;;;;;;18.49;60.23;100702.45;469944;112;922577;-75
2022/07/15 02:06:36;;;;;;;1.00;0.44;;;;;;;18.48;60.22;100700.78;468416;113;922532;-75
2022/07/15 02:07:40;;;;;;;0.56;0.56;;;;;;;18.47;60.21;100706.59;462022;114;922451;-75
2022/07/15 02:08:45;;;;;;;0.62;0.60;;;;;;;18.46;60.24;100703.00;461892;114;922517;-75
2022/07/15 02:09:49;;;;;;;3.02;0.53;;;;;;;18.45;60.26;100706.84;461872;114;922502;-75
2022/07/15 02:10:53;;;;;;;0.53;0.48;;;;;;;18.44;60.29;100704.34;462143;114;923052;-75
2022/07/15 02:11:56;;;;;;;0.94;0.66;;;;;;;18.43;60.38;100703.51;462128;114;923173;-75
2022/07/15 02:13:01;;;;;;;1.86;0.58;;;;;;;18.43;60.51;100703.51;461902;114;923040;-76
2022/07/15 02:14:04;;;;;;;0.55;0.50;;;;;;;18.44;60.58;100707.10;462106;114;922542;-75
2022/07/15 02:15:08;;;;;;;1.21;0.56;;;;;;;18.44;60.63;100705.17;461563;114;922658;-75
2022/07/15 02:16:25;;;;;;;0.65;0.50;;;;;;;18.45;60.62;100706.02;452218;117;930307;-75
2022/07/15 02:17:29;;;;;;;1.25;0.58;;;;;;;18.47;60.72;100707.40;461433;115;922553;-75
2022/07/15 02:18:32;;;;;;;1.54;0.64;;;;;;;18.47;60.82;100706.59;461636;115;922851;-75
2022/07/15 02:19:36;;;;;;;1.73;0.62;;;;;;;18.48;60.64;100709.06;452339;117;922524;-75
2022/07/15 02:20:39;;;;;;;1.76;0.50;;;;;;;18.47;60.54;100707.40;461527;115;930118;-75
2022/07/15 02:21:42;;;;;;;0.56;0.56;;;;;;;18.46;60.42;100702.16;461696;115;922545;-75
2022/07/15 02:22:45;;;;;;;0.77;0.62;;;;;;;18.44;60.51;100709.86;461618;114;922918;-75
2022/07/15 02:23:49;;;;;;;1.53;0.58;;;;;;;18.43;60.63;100700.75;461590;115;922533;-76
2022/07/15 02:24:52;;;;;;;5.31;1.10;;;;;;;18.43;60.71;100697.15;461654;115;923043;-75
2022/07/15 02:25:56;;;;;;;1.41;0.81;;;;;;;18.43;60.67;100706.27;461535;115;922831;-75
2022/07/15 02:27:01;;;;;;;0.84;0.52;;;;;;;18.44;60.67;100704.34;461074;115;922773;-75
2022/07/15 02:28:05;;;;;;;1.17;0.45;;;;;;;18.43;60.79;100700.75;461672;115;923141;-75
2022/07/15 02:29:09;;;;;;;0.41;0.41;;;;;;;18.45;60.91;100706.02;461438;115;923095;-75
2022/07/15 02:30:12;;;;;;;1.56;0.54;;;;;;;18.47;60.92;100701.87;459449;114;922630;-75
2022/07/15 02:31:15;;;;;;;1.02;0.54;;;;;;;18.48;60.99;100697.19;465346;114;922831;-75
2022/07/15 02:32:20;;;;;;;1.23;0.50;;;;;;;18.50;60.97;100695.84;465275;114;924728;-75
2022/07/15 02:33:23;;;;;;;2.26;0.52;;;;;;;18.52;61.01;100695.59;465432;114;923025;-75
2022/07/15 02:34:26;;;;;;;1.58;0.60;;;;;;;18.52;61.01;100695.59;458268;114;923374;-75
2022/07/15 02:35:30;;;;;;;1.74;1.01;;;;;;;18.52;60.74;100704.70;457379;116;922619;-74
2022/07/15 02:36:34;;;;;;;1.04;0.70;;;;;;;18.51;60.70;100703.03;466023;113;922604;-75
2022/07/15 02:37:36;;;;;;;0.63;0.62;;;;;;;18.51;60.77;100697.52;470005;113;922876;-75
2022/07/15 02:38:40;;;;;;;2.46;0.54;;;;;;;18.51;60.78;100697.52;469969;113;922554;-75
2022/07/15 02:39:43;;;;;;;2.74;0.80;;;;;;;18.51;60.88;100694.75;469874;113;922572;-75
2022/07/15 02:40:46;;;;;;;0.84;0.65;;;;;;;18.52;60.83;100698.34;469944;112;923205;-75
2022/07/15 02:41:49;;;;;;;0.73;0.70;;;;;;;18.52;60.91;100699.18;469954;113;923221;-75
2022/07/15 02:42:54;;;;;;;0.86;0.79;;;;;;;18.53;60.84;100702.75;469926;112;922858;-75
2022/07/15 02:43:59;;;;;;;1.03;0.64;;;;;;;18.53;60.79;100700.82;469756;113;922605;-75
2022/07/15 02:45:04;;;;;;;1.15;0.57;;;;;;;18.55;60.85;100700.59;469730;113;922955;-75
2022/07/15 02:46:11;;;;;;;0.88;0.68;;;;;;;18.56;60.93;100707.80;469801;112;922642;-75
2022/07/15 02:47:16;;;;;;;0.61;0.56;;;;;;;18.56;60.90;100702.27;469646;113;930170;-75
2022/07/15 02:48:19;;;;;;;1.58;0.81;;;;;;;18.57;60.86;100710.30;469731;113;922869;-75
2022/07/15 02:49:23;;;;;;;1.21;0.71;;;;;;;18.57;60.83;100701.17;469803;112;930240;-75
2022/07/15 02:50:28;;;;;;;1.64;0.85;;;;;;;18.58;60.95;100700.09;469725;113;922882;-74
2022/07/15 02:51:31;;;;;;;0.88;0.88;;;;;;;18.57;60.82;100690.97;469764;113;930211;-75
2022/07/15 02:52:34;;;;;;;0.87;0.87;;;;;;;18.57;60.85;100696.48;469914;113;922656;-75
2022/07/15 02:53:38;;;;;;;1.52;1.07;;;;;;;18.57;60.78;100698.41;469908;113;922567;-74
2022/07/15 02:54:43;;;;;;;1.16;1.01;;;;;;;18.57;60.77;100698.41;469748;113;922859;-75
2022/07/15 02:55:48;;;;;;;1.19;0.82;;;;;;;18.56;60.77;100702.27;460641;114;922595;-75
2022/07/15 02:56:52;;;;;;;1.39;1.28;;;;;;;18.54;60.76;100694.23;461052;113;922567;-74
2022/07/15 02:57:55;;;;;;;1.40;1.30;;;;;;;18.53;60.83;100703.58;469879;113;922951;-75
2022/07/15 02:58:58;;;;;;;1.63;1.53;;;;;;;18.52;60.84;100698.34;469820;113;922983;-75
2022/07/15 03:00:05;;;;;;;1.47;1.33;;;;;;;18.51;60.97;100705.80;469758;112;922540;-75
2022/07/15 03:01:09;;;;;;;1.42;1.30;;;;;;;18.50;60.94;100706.05;469576;113;930267;-74
2022/07/15 03:02:13;;;;;;;1.33;1.23;;;;;;;18.49;61.00;100702.45;469666;113;923017;-75
2022/07/15 03:03:17;;;;;;;1.46;1.36;;;;;;;18.50;61.09;100706.89;469742;113;922839;-75
2022/07/15 03:04:20;;;;;;;2.08;1.13;;;;;;;18.50;61.15;100711.58;469735;113;922524;-75
2022/07/15 03:05:23;;;;;;;1.24;1.02;;;;;;;18.51;61.18;100705.80;460296;115;930353;-75
2022/07/15 03:06:28;;;;;;;1.78;1.09;;;;;;;18.52;61.32;100707.47;460226;115;923575;-74
2022/07/15 03:07:31;;;;;;;6.41;1.12;;;;;;;18.53;61.34;100703.58;461129;115;922881;-74
2022/07/15 03:08:35;;;;;;;1.22;0.92;;;;;;;18.56;61.34;100708.63;461087;115;922773;-74
2022/07/15 03:09:38;;;;;;;1.23;1.04;;;;;;;18.58;61.36;100717.46;461155;115;922926;-74
2022/07/15 03:10:41;;;;;;;0.79;0.79;;;;;;;18.59;61.28;100713.61;461114;115;922481;-75
2022/07/15 03:11:44;;;;;;;0.96;0.89;;;;;;;18.61;61.22;100716.11;461146;115;922882;-75
2022/07/15 03:12:49;;;;;;;1.88;0.91;;;;;;;18.62;61.21;100717.78;460890;115;923099;-75
2022/07/15 03:13:53;;;;;;;0.81;0.79;;;;;;;18.62;61.19;100718.62;461057;115;922459;-75
2022/07/15 03:14:56;;;;;;;2.59;0.95;;;;;;;18.63;61.14;100708.41;462279;114;930109;-75
2022/07/15 03:15:59;;;;;;;1.02;0.74;;;;;;;18.64;61.25;100718.33;463048;114;923061;-75
2022/07/15 03:17:02;;;;;;;0.87;0.84;;;;;;;18.65;61.09;100717.23;463112;114;922645;-75
2022/07/15 03:18:06;;;;;;;1.76;0.90;;;;;;;18.65;61.05;100720.84;462937;114;922633;-75
2022/07/15 03:19:09;;;;;;;1.06;0.84;;;;;;;18.65;61.06;100718.08;463069;114;922488;-74
2022/07/15 03:20:13;;;;;;;1.14;0.91;;;;;;;18.66;61.15;100722.51;462883;114;922996;-75
2022/07/15 03:21:18;;;;;;;0.74;0.68;;;;;;;18.68;61.22;100722.25;462340;114;922613;-75
2022/07/15 03:22:24;;;;;;;0.99;0.90;;;;;;;18.71;61.24;100727.23;453624;116;923009;-75
2022/07/15 03:23:27;;;;;;;2.15;0.79;;;;;;;18.72;61.26;100726.98;453550;117;922994;-75
2022/07/15 03:24:31;;;;;;;1.05;0.92;;;;;;;18.75;61.15;100728.36;453669;117;930201;-75
2022/07/15 03:25:34;;;;;;;1.03;0.94;;;;;;;18.76;61.02;100730.03;462967;114;922969;-75
2022/07/15 03:26:42;;;;;;;3.51;1.23;;;;;;;18.75;60.99;100729.20;462745;114;923170;-75
2022/07/15 03:27:45;;;;;;;2.52;1.06;;;;;;;18.74;60.96;100723.96;453653;117;922912;-75
2022/07/15 03:28:48;;;;;;;1.82;1.02;;;;;;;18.73;61.05;100728.65;453711;117;922484;-74
2022/07/15 03:29:52;;;;;;;2.06;1.12;;;;;;;18.72;61.06;100721.45;459782;114;922495;-74
2022/07/15 03:30:56;;;;;;;1.77;1.21;;;;;;;18.73;61.12;100722.28;465225;114;923189;-75
2022/07/15 03:31:59;;;;;;;1.37;0.98;;;;;;;18.74;61.25;100726.72;465474;114;922592;-74
2022/07/15 03:33:03;;;;;;;2.48;1.20;;;;;;;18.74;61.19;100730.28;465296;113;922457;-74
2022/07/15 03:34:06;;;;;;;1.21;1.06;;;;;;;18.76;61.18;100732.80;465872;113;930672;-74
2022/07/15 03:35:09;;;;;;;1.11;1.01;;;;;;;18.77;61.22;100725.34;466449;113;922461;-75
2022/07/15 03:36:15;;;;;;;1.55;0.94;;;;;;;18.76;61.17;100732.80;466239;113;922552;-74
2022/07/15 03:37:18;;;;;;;1.44;1.32;;;;;;;18.77;61.21;100737.23;464628;113;922529;-74
2022/07/15 03:38:23;;;;;;;1.81;1.31;;;;;;;18.77;61.18;100733.62;463435;114;922539;-75
2022/07/15 03:39:26;;;;;;;1.56;1.12;;;;;;;18.77;61.26;100725.34;463688;114;922570;-74
2022/07/15 03:40:29;;;;;;;1.32;1.21;;;;;;;18.77;61.34;100734.46;463615;114;922610;-74
2022/07/15 03:41:33;;;;;;;3.02;1.33;;;;;;;18.78;61.37;100741.66;463672;114;922846;-74
2022/07/15 03:42:37;;;;;;;1.44;1.34;;;;;;;18.79;61.33;100735.05;463584;114;922657;-74
2022/07/15 03:43:41;;;;;;;1.66;1.26;;;;;;;18.80;61.39;100736.68;463741;114;922989;-74
2022/07/15 03:44:44;;;;;;;1.52;1.18;;;;;;;18.83;61.46;100735.33;463528;114;922553;-74
2022/07/15 03:45:47;;;;;;;1.47;1.26;;;;;;;18.83;61.46;100733.41;463575;114;930340;-74
2022/07/15 03:46:52;;;;;;;1.31;1.14;;;;;;;18.86;61.48;100735.63;463524;114;922757;-74
2022/07/15 03:47:55;;;;;;;1.64;1.26;;;;;;;18.88;61.43;100740.89;463621;114;930164;-74
2022/07/15 03:48:58;;;;;;;1.32;1.22;;;;;;;18.89;61.51;100734.27;463716;114;922901;-74
2022/07/15 03:50:01;;;;;;;1.69;1.10;;;;;;;18.91;61.51;100734.85;463710;114;922844;-74
2022/07/15 03:51:06;;;;;;;1.55;1.25;;;;;;;18.93;61.56;100733.47;463521;114;922763;-74
2022/07/15 03:52:09;;;;;;;1.68;1.54;;;;;;;18.96;61.59;100734.88;463611;114;930266;-74
2022/07/15 03:53:12;;;;;;;1.28;1.15;;;;;;;19.00;61.46;100733.24;463670;114;922428;-74
2022/07/15 03:54:15;;;;;;;2.04;1.41;;;;;;;19.01;61.45;100737.67;463720;114;922996;-74
2022/07/15 03:55:19;;;;;;;1.48;1.38;;;;;;;19.01;61.45;100732.98;463656;114;922516;-74
2022/07/15 03:56:22;;;;;;;1.39;1.29;;;;;;;19.02;61.52;100731.86;463663;114;923265;-74
2022/07/15 03:57:26;;;;;;;1.70;1.17;;;;;;;19.03;61.47;100739.06;463742;114;923444;-74
2022/07/15 03:58:29;;;;;;;2.34;1.70;;;;;;;19.03;61.44;100736.30;463669;114;923425;-74
2022/07/15 03:59:33;;;;;;;2.27;1.50;;;;;;;19.03;61.44;100733.53;463708;114;922426;-74
2022/07/15 04:00:36;;;;;;;1.55;1.29;;;;;;;19.06;61.55;100734.94;463660;114;922481;-74
2022/07/15 04:01:40;;;;;;;5.30;1.38;;;;;;;19.06;61.55;100744.07;463671;114;922464;-74
2022/07/15 04:02:43;;;;;;;2.92;1.44;;;;;;;19.08;61.51;100744.61;463628;114;922947;-74
2022/07/15 04:03:49;;;;;;;2.19;1.37;;;;;;;19.09;61.59;100740.75;463274;114;922587;-74
2022/07/15 04:04:53;;;;;;;2.06;1.78;;;;;;;19.10;61.57;100741.59;463668;114;923011;-74
2022/07/15 04:05:56;;;;;;;1.54;1.44;;;;;;;19.12;61.66;100736.64;463728;114;922595;-74
2022/07/15 04:06:58;;;;;;;1.94;1.61;;;;;;;19.16;61.70;100737.76;462883;114;922504;-74
2022/07/15 04:08:02;;;;;;;2.80;1.27;;;;;;;19.18;61.71;100739.14;462133;114;922592;-75
2022/07/15 04:09:05;;;;;;;2.47;1.76;;;;;;;19.22;61.74;100744.16;462188;114;923071;-74
2022/07/15 04:10:08;;;;;;;1.44;1.34;;;;;;;19.25;61.78;100732.55;462216;114;922537;-74
2022/07/15 04:11:12;;;;;;;1.40;1.27;;;;;;;19.26;61.81;100729.52;462240;114;922758;-76
2022/07/15 04:12:15;;;;;;;1.42;1.03;;;;;;;19.30;61.75;100738.94;462164;114;922475;-74
2022/07/15 04:13:18;;;;;;;2.21;1.30;;;;;;;19.32;61.75;100744.20;462135;114;922872;-74
2022/07/15 04:14:22;;;;;;;3.44;1.45;;;;;;;19.36;61.79;100743.39;461751;114;922584;-74
2022/07/15 04:15:25;;;;;;;2.92;1.42;;;;;;;19.39;61.83;100748.40;457954;116;922510;-74
2022/07/15 04:16:28;;;;;;;1.42;1.32;;;;;;;19.43;61.79;100751.45;457970;116;922999;-74
2022/07/15 04:17:32;;;;;;;1.52;1.42;;;;;;;19.45;61.78;100747.36;448981;118;922751;-75
2022/07/15 04:18:35;;;;;;;1.65;1.50;;;;;;;19.48;61.76;100748.73;449273;116;922634;-74
2022/07/15 04:19:38;;;;;;;1.64;1.27;;;;;;;19.50;61.81;100752.91;457965;116;923042;-74
2022/07/15 04:20:42;;;;;;;1.79;1.36;;;;;;;19.53;61.77;100751.52;457925;116;922616;-74
2022/07/15 04:21:46;;;;;;;1.99;1.42;;;;;;;19.55;61.76;100754.86;457857;116;923470;-74
2022/07/15 04:22:49;;;;;;;1.63;1.31;;;;;;;19.57;61.65;100753.47;457853;116;922529;-74
2022/07/15 04:23:52;;;;;;;1.98;1.72;;;;;;;19.59;61.60;100755.98;457861;116;930223;-74
2022/07/15 04:24:55;;;;;;;6.48;1.74;;;;;;;19.63;61.60;100756.29;457867;116;922901;-74
2022/07/15 04:25:58;;;;;;;2.69;1.60;;;;;;;19.65;61.60;100751.30;457862;116;922690;-74
2022/07/15 04:27:01;;;;;;;1.76;1.66;;;;;;;19.67;61.64;100749.11;457912;116;922687;-76
2022/07/15 04:28:04;;;;;;;2.59;1.51;;;;;;;19.68;61.62;100754.38;457948;116;922965;-75
2022/07/15 04:29:09;;;;;;;2.26;1.41;;;;;;;19.72;61.69;100754.66;461127;114;922763;-73
2022/07/15 04:30:12;;;;;;;1.59;1.47;;;;;;;19.75;61.73;100757.70;458376;114;922553;-75
2022/07/15 04:31:18;;;;;;;2.57;1.40;;;;;;;19.77;61.64;100751.91;461734;114;923078;-75
2022/07/15 04:32:29;;;;;;;1.66;1.09;;;;;;;19.80;61.59;100756.88;461443;114;923024;-75
2022/07/15 04:33:33;;;;;;;1.50;1.30;;;;;;;19.81;61.54;100751.08;462203;114;923073;-75
2022/07/15 04:34:36;;;;;;;3.07;1.26;;;;;;;19.84;61.56;100756.09;463660;114;922691;-75
2022/07/15 04:35:39;;;;;;;1.22;1.17;;;;;;;19.87;61.49;100763.00;463732;114;923047;-75
2022/07/15 04:36:43;;;;;;;1.41;1.07;;;;;;;19.89;61.45;100750.57;463599;114;923059;-73
2022/07/15 04:37:46;;;;;;;2.72;1.04;;;;;;;19.92;61.38;100751.95;456128;116;922990;-74
2022/07/15 04:38:50;;;;;;;1.69;1.21;;;;;;;19.93;61.30;100750.84;456784;114;922657;-75
2022/07/15 04:39:53;;;;;;;1.64;1.07;;;;;;;19.97;61.29;100751.95;464682;114;922925;-75
2022/07/15 04:40:56;;;;;;;1.32;1.18;;;;;;;19.99;61.25;100755.30;464677;114;922488;-75
2022/07/15 04:41:59;;;;;;;4.17;1.08;;;;;;;20.03;61.31;100759.17;464659;114;923390;-75
2022/07/15 04:43:03;;;;;;;1.49;1.39;;;;;;;20.06;61.22;100755.87;464567;114;922505;-75
2022/07/15 04:44:06;;;;;;;1.21;1.09;;;;;;;20.10;61.20;100754.22;464633;114;922559;-74
2022/07/15 04:45:09;;;;;;;1.25;1.10;;;;;;;20.13;61.10;100753.66;464631;114;930116;-75
2022/07/15 04:46:13;;;;;;;3.04;1.14;;;;;;;20.16;61.01;100757.83;464535;114;923033;-74
2022/07/15 04:47:16;;;;;;;1.37;1.26;;;;;;;20.19;60.86;100760.87;464642;114;922478;-75
2022/07/15 04:51:09;;;;;;;1.58;0.99;;;;;;;20.24;60.76;100754.50;464396;114;922493;-74
2022/07/15 04:52:13;;;;;;;1.41;1.19;;;;;;;20.25;60.68;100754.23;464549;114;922532;-74
2022/07/15 04:53:20;;;;;;;2.11;1.40;;;;;;;20.27;60.66;100763.11;464485;114;922532;-75
2022/07/15 04:54:24;;;;;;;1.27;1.17;;;;;;;20.29;60.69;100755.34;464536;114;922886;-75
2022/07/15 04:55:27;;;;;;;1.47;1.37;;;;;;;20.32;60.74;100756.78;464766;114;922552;-74
2022/07/15 04:56:33;;;;;;;1.61;1.22;;;;;;;20.35;60.86;100759.81;463819;114;922547;-75
2022/07/15 04:57:38;;;;;;;3.66;1.20;;;;;;;20.38;60.84;100761.22;464303;114;922864;-75
2022/07/15 04:58:41;;;;;;;2.04;1.14;;;;;;;20.40;60.84;100762.59;456553;116;922601;-75